createdAt,value
2017-06-18T00:00:27.812Z,0
2017-06-18T00:01:41.991Z,0
2017-06-18T00:02:43.873Z,0
2017-06-18T00:03:45.756Z,0
2017-06-18T00:04:47.617Z,0
2017-06-18T00:05:49.420Z,0
2017-06-18T00:06:51.223Z,0
2017-06-18T00:07:53.102Z,0
2017-06-18T00:08:54.962Z,0
2017-06-18T00:09:56.821Z,0
2017-06-18T00:11:10.947Z,0
2017-06-18T00:12:12.808Z,0
2017-06-18T00:13:14.678Z,0
2017-06-18T00:14:16.562Z,0
2017-06-18T00:15:18.354Z,0
2017-06-18T00:16:20.161Z,0
2017-06-18T00:17:22.043Z,0
2017-06-18T00:18:23.919Z,0
2017-06-18T00:19:25.790Z,0
2017-06-18T00:20:39.921Z,0
2017-06-18T00:21:41.784Z,0
2017-06-18T00:22:43.669Z,0
2017-06-18T00:23:45.550Z,0
2017-06-18T00:24:47.350Z,0
2017-06-18T00:25:49.154Z,0
2017-06-18T00:26:51.015Z,0
2017-06-18T00:27:52.883Z,0
2017-06-18T00:28:54.764Z,0
2017-06-18T00:30:08.918Z,0
2017-06-18T00:31:10.795Z,0
2017-06-18T00:32:12.660Z,0
2017-06-18T00:33:14.544Z,0
2017-06-18T00:34:16.372Z,0
2017-06-18T00:35:18.169Z,0
2017-06-18T00:36:20.037Z,0
2017-06-18T00:37:21.890Z,0
2017-06-18T00:38:23.750Z,0
2017-06-18T00:39:37.878Z,0
2017-06-18T00:40:39.741Z,0
2017-06-18T00:41:41.626Z,0
2017-06-18T00:42:43.512Z,0
2017-06-18T00:43:45.331Z,0
2017-06-18T00:44:47.137Z,0
2017-06-18T00:45:49.021Z,0
2017-06-18T00:46:50.898Z,0
2017-06-18T00:47:52.757Z,0
2017-06-18T00:49:06.891Z,0
2017-06-18T00:50:08.777Z,0
2017-06-18T00:51:10.656Z,0
2017-06-18T00:52:12.522Z,0
2017-06-18T00:53:14.343Z,0
2017-06-18T00:54:16.139Z,0
2017-06-18T00:55:18.004Z,0
2017-06-18T00:56:19.859Z,0
2017-06-18T00:57:21.717Z,0
2017-06-18T00:58:35.857Z,0
2017-06-18T00:59:37.734Z,0
2017-06-18T01:00:39.593Z,0
2017-06-18T01:01:41.456Z,0
2017-06-18T01:02:43.255Z,0
2017-06-18T01:03:45.074Z,0
2017-06-18T01:04:46.933Z,0
2017-06-18T01:05:48.801Z,0
2017-06-18T01:06:50.679Z,0
2017-06-18T01:08:04.809Z,0
2017-06-18T01:09:06.675Z,0
2017-06-18T01:10:08.558Z,0
2017-06-18T01:11:10.443Z,0
2017-06-18T01:12:12.262Z,0
2017-06-18T01:13:14.060Z,0
2017-06-18T01:14:15.922Z,0
2017-06-18T01:15:17.800Z,0
2017-06-18T01:16:19.657Z,0
2017-06-18T01:17:33.787Z,0
2017-06-18T01:18:35.651Z,0
2017-06-18T01:19:37.510Z,0
2017-06-18T01:20:39.374Z,0
2017-06-18T01:21:41.176Z,0
2017-06-18T01:22:42.978Z,0
2017-06-18T01:23:44.860Z,0
2017-06-18T01:24:46.741Z,0
2017-06-18T01:25:48.613Z,0
2017-06-18T01:27:02.745Z,0
2017-06-18T01:28:04.600Z,0
2017-06-18T01:29:06.471Z,0
2017-06-18T01:30:08.351Z,0
2017-06-18T01:31:10.153Z,0
2017-06-18T01:32:11.977Z,0
2017-06-18T01:33:13.858Z,0
2017-06-18T01:34:15.723Z,0
2017-06-18T01:35:17.599Z,0
2017-06-18T01:36:31.738Z,0
2017-06-18T01:37:33.597Z,0
2017-06-18T01:38:35.463Z,0
2017-06-18T01:39:37.341Z,0
2017-06-18T01:40:39.144Z,0
2017-06-18T01:41:40.940Z,0
2017-06-18T01:42:42.805Z,0
2017-06-18T01:43:44.684Z,0
2017-06-18T01:44:46.549Z,0
2017-06-18T01:46:00.684Z,0
2017-06-18T01:47:02.565Z,0
2017-06-18T01:48:04.450Z,0
2017-06-18T01:49:06.314Z,0
2017-06-18T01:50:08.134Z,0
2017-06-18T01:51:09.925Z,0
2017-06-18T01:52:11.788Z,0
2017-06-18T01:53:13.650Z,0
2017-06-18T01:54:15.537Z,0
2017-06-18T01:55:29.689Z,0
2017-06-18T01:56:31.556Z,0
2017-06-18T01:57:33.434Z,0
2017-06-18T01:58:35.290Z,0
2017-06-18T01:59:37.087Z,0
2017-06-18T02:00:38.883Z,0
2017-06-18T02:01:40.745Z,0
2017-06-18T02:02:42.609Z,0
2017-06-18T02:03:44.475Z,0
2017-06-18T02:04:58.608Z,0
2017-06-18T02:06:00.489Z,0
2017-06-18T02:07:02.353Z,0
2017-06-18T02:08:04.239Z,0
2017-06-18T02:09:06.063Z,0
2017-06-18T02:10:07.884Z,0
2017-06-18T02:11:09.765Z,0
2017-06-18T02:12:11.626Z,0
2017-06-18T02:13:13.489Z,0
2017-06-18T02:14:27.695Z,0
2017-06-18T02:15:29.574Z,0
2017-06-18T02:16:31.436Z,0
2017-06-18T02:17:33.296Z,0
2017-06-18T02:18:35.101Z,0
2017-06-18T02:19:36.901Z,0
2017-06-18T02:20:38.788Z,0
2017-06-18T02:21:40.654Z,0
2017-06-18T02:22:42.522Z,0
2017-06-18T02:23:56.674Z,0
2017-06-18T02:24:58.542Z,0
2017-06-18T02:26:00.404Z,0
2017-06-18T02:27:02.270Z,0
2017-06-18T02:28:04.077Z,0
2017-06-18T02:29:05.889Z,0
2017-06-18T02:30:07.753Z,0
2017-06-18T02:31:09.614Z,0
2017-06-18T02:32:11.477Z,0
2017-06-18T02:33:25.632Z,0
2017-06-18T02:34:27.515Z,0
2017-06-18T02:35:29.400Z,0
2017-06-18T02:36:31.263Z,0
2017-06-18T02:37:33.056Z,0
2017-06-18T02:38:34.852Z,0
2017-06-18T02:39:36.716Z,0
2017-06-18T02:40:38.584Z,0
2017-06-18T02:41:40.426Z,0
2017-06-18T02:42:54.599Z,5
2017-06-18T02:43:56.486Z,5
2017-06-18T02:44:58.368Z,5
2017-06-18T02:46:00.235Z,5
2017-06-18T02:47:02.057Z,5
2017-06-18T02:48:03.860Z,5
2017-06-18T02:49:05.679Z,5
2017-06-18T02:50:07.487Z,5
2017-06-18T02:51:09.289Z,10
2017-06-18T02:52:23.425Z,10
2017-06-18T02:53:25.294Z,10
2017-06-18T02:54:27.175Z,10
2017-06-18T02:55:29.037Z,15
2017-06-18T02:56:30.844Z,15
2017-06-18T02:57:32.638Z,15
2017-06-18T02:58:34.506Z,15
2017-06-18T02:59:36.370Z,20
2017-06-18T03:00:38.232Z,20
2017-06-18T03:01:52.373Z,20
2017-06-18T03:02:54.262Z,20
2017-06-18T03:03:56.120Z,25
2017-06-18T03:04:57.984Z,30
2017-06-18T03:05:59.783Z,35
2017-06-18T03:07:01.586Z,40
2017-06-18T03:08:03.456Z,35
2017-06-18T03:09:05.344Z,30
2017-06-18T03:10:07.202Z,30
2017-06-18T03:11:21.340Z,30
2017-06-18T03:12:23.229Z,30
2017-06-18T03:13:25.113Z,30
2017-06-18T03:14:27.001Z,30
2017-06-18T03:15:28.801Z,35
2017-06-18T03:16:30.603Z,35
2017-06-18T03:17:32.486Z,40
2017-06-18T03:18:34.353Z,40
2017-06-18T03:19:36.218Z,45
2017-06-18T03:20:50.375Z,45
2017-06-18T03:21:52.255Z,50
2017-06-18T03:22:54.125Z,55
2017-06-18T03:23:55.988Z,55
2017-06-18T03:24:57.799Z,55
2017-06-18T03:25:59.625Z,55
2017-06-18T03:27:01.518Z,55
2017-06-18T03:28:03.408Z,60
2017-06-18T03:29:05.293Z,65
2017-06-18T03:30:19.425Z,65
2017-06-18T03:31:21.292Z,70
2017-06-18T03:32:23.179Z,70
2017-06-18T03:33:25.065Z,75
2017-06-18T03:34:26.892Z,75
2017-06-18T03:35:28.688Z,75
2017-06-18T03:36:30.558Z,75
2017-06-18T03:37:32.449Z,75
2017-06-18T03:38:34.336Z,75
2017-06-18T03:39:48.479Z,75
2017-06-18T03:40:50.366Z,75
2017-06-18T03:41:52.254Z,75
2017-06-18T03:42:54.114Z,80
2017-06-18T03:43:55.923Z,80
2017-06-18T03:44:57.743Z,85
2017-06-18T03:45:59.636Z,85
2017-06-18T03:47:01.527Z,80
2017-06-18T03:48:03.410Z,80
2017-06-18T03:49:17.552Z,85
2017-06-18T03:50:19.435Z,85
2017-06-18T03:51:21.323Z,85
2017-06-18T03:52:23.214Z,85
2017-06-18T03:53:25.033Z,85
2017-06-18T03:54:26.837Z,90
2017-06-18T03:55:28.706Z,90
2017-06-18T03:56:30.596Z,95
2017-06-18T03:57:32.473Z,95
2017-06-18T03:58:46.634Z,100
2017-06-18T03:59:48.500Z,105
2017-06-18T04:00:50.382Z,110
2017-06-18T04:01:52.252Z,115
2017-06-18T04:02:54.064Z,120
2017-06-18T04:03:55.888Z,125
2017-06-18T04:04:57.785Z,135
2017-06-18T04:05:59.697Z,145
2017-06-18T04:07:01.545Z,160
2017-06-18T04:08:15.684Z,180
2017-06-18T04:09:17.553Z,190
2017-06-18T04:10:19.424Z,195
2017-06-18T04:11:21.310Z,200
2017-06-18T04:12:23.116Z,190
2017-06-18T04:13:24.924Z,190
2017-06-18T04:14:26.813Z,190
2017-06-18T04:15:28.681Z,190
2017-06-18T04:16:30.553Z,195
2017-06-18T04:17:44.691Z,200
2017-06-18T04:18:46.564Z,190
2017-06-18T04:19:48.449Z,190
2017-06-18T04:20:50.326Z,195
2017-06-18T04:21:52.155Z,200
2017-06-18T04:22:53.985Z,200
2017-06-18T04:23:55.876Z,195
2017-06-18T04:24:57.740Z,200
2017-06-18T04:25:59.614Z,205
2017-06-18T04:27:13.784Z,210
2017-06-18T04:28:15.668Z,220
2017-06-18T04:29:17.536Z,230
2017-06-18T04:30:19.406Z,245
2017-06-18T04:31:21.217Z,255
2017-06-18T04:32:23.045Z,265
2017-06-18T04:33:24.933Z,280
2017-06-18T04:34:26.797Z,280
2017-06-18T04:35:28.666Z,285
2017-06-18T04:36:42.804Z,325
2017-06-18T04:37:44.675Z,295
2017-06-18T04:38:46.564Z,325
2017-06-18T04:39:48.454Z,290
2017-06-18T04:40:50.253Z,490
2017-06-18T04:41:52.070Z,840
2017-06-18T04:42:53.954Z,870
2017-06-18T04:43:55.828Z,885
2017-06-18T04:44:57.718Z,900
2017-06-18T04:46:11.912Z,910
2017-06-18T04:47:13.803Z,930
2017-06-18T04:48:15.692Z,940
2017-06-18T04:49:17.556Z,935
2017-06-18T04:50:19.368Z,910
2017-06-18T04:51:21.200Z,880
2017-06-18T04:52:23.096Z,860
2017-06-18T04:53:24.994Z,880
2017-06-18T04:54:26.886Z,910
2017-06-18T04:55:41.026Z,945
2017-06-18T04:56:42.902Z,985
2017-06-18T04:57:44.790Z,995
2017-06-18T04:58:46.684Z,1000
2017-06-18T04:59:48.516Z,1015
2017-06-18T05:00:50.347Z,1015
2017-06-18T05:01:52.226Z,1005
2017-06-18T05:02:54.101Z,1015
2017-06-18T05:03:55.973Z,1040
2017-06-18T05:05:10.122Z,1050
2017-06-18T05:06:12.013Z,1065
2017-06-18T05:07:13.891Z,1080
2017-06-18T05:08:15.762Z,1095
2017-06-18T05:09:17.575Z,1090
2017-06-18T05:10:19.380Z,1060
2017-06-18T05:11:21.259Z,1060
2017-06-18T05:12:23.156Z,1080
2017-06-18T05:13:25.043Z,1105
2017-06-18T05:14:39.192Z,1140
2017-06-18T05:15:41.085Z,1150
2017-06-18T05:16:42.974Z,1145
2017-06-18T05:17:44.846Z,1160
2017-06-18T05:18:46.670Z,1175
2017-06-18T05:19:48.485Z,1190
2017-06-18T05:20:50.375Z,895
2017-06-18T05:21:52.257Z,955
2017-06-18T05:22:54.139Z,755
2017-06-18T05:24:08.287Z,680
2017-06-18T05:25:10.162Z,710
2017-06-18T05:26:12.056Z,815
2017-06-18T05:27:13.933Z,775
2017-06-18T05:28:15.765Z,800
2017-06-18T05:29:17.575Z,835
2017-06-18T05:30:19.470Z,790
2017-06-18T05:31:21.370Z,730
2017-06-18T05:32:23.260Z,780
2017-06-18T05:33:37.403Z,705
2017-06-18T05:34:39.298Z,745
2017-06-18T05:35:41.181Z,675
2017-06-18T05:36:43.055Z,660
2017-06-18T05:37:44.887Z,650
2017-06-18T05:38:46.701Z,630
2017-06-18T05:39:48.575Z,630
2017-06-18T05:40:50.461Z,615
2017-06-18T05:41:52.333Z,590
2017-06-18T05:43:06.477Z,575
2017-06-18T05:44:08.351Z,575
2017-06-18T05:45:10.223Z,580
2017-06-18T05:46:12.125Z,585
2017-06-18T05:47:13.955Z,595
2017-06-18T05:48:15.783Z,600
2017-06-18T05:49:17.658Z,600
2017-06-18T05:50:19.554Z,605
2017-06-18T05:51:21.444Z,610
2017-06-18T05:52:35.658Z,625
2017-06-18T05:53:37.533Z,620
2017-06-18T05:54:39.429Z,625
2017-06-18T05:55:41.325Z,630
2017-06-18T05:56:43.154Z,630
2017-06-18T05:57:44.984Z,640
2017-06-18T05:58:46.861Z,645
2017-06-18T05:59:48.757Z,645
2017-06-18T06:00:50.646Z,645
2017-06-18T06:02:04.790Z,645
2017-06-18T06:03:06.661Z,645
2017-06-18T06:04:08.533Z,630
2017-06-18T06:05:10.424Z,615
2017-06-18T06:06:12.258Z,605
2017-06-18T06:07:14.067Z,600
2017-06-18T06:08:15.961Z,595
2017-06-18T06:09:17.835Z,595
2017-06-18T06:10:19.726Z,600
2017-06-18T06:11:33.867Z,590
2017-06-18T06:12:35.740Z,570
2017-06-18T06:13:37.610Z,540
2017-06-18T06:14:39.498Z,515
2017-06-18T06:15:41.312Z,495
2017-06-18T06:16:43.123Z,475
2017-06-18T06:17:45.017Z,475
2017-06-18T06:18:46.912Z,480
2017-06-18T06:19:48.806Z,485
2017-06-18T06:21:02.996Z,485
2017-06-18T06:22:04.873Z,485
2017-06-18T06:23:06.768Z,460
2017-06-18T06:24:08.665Z,450
2017-06-18T06:25:10.490Z,435
2017-06-18T06:26:12.296Z,415
2017-06-18T06:27:14.170Z,380
2017-06-18T06:28:16.060Z,340
2017-06-18T06:29:17.931Z,315
2017-06-18T06:30:32.074Z,300
2017-06-18T06:31:33.961Z,290
2017-06-18T06:32:35.818Z,280
2017-06-18T06:33:37.709Z,280
2017-06-18T06:34:39.513Z,280
2017-06-18T06:35:41.323Z,280
2017-06-18T06:36:43.217Z,280
2017-06-18T06:37:45.112Z,275
2017-06-18T06:38:46.999Z,275
2017-06-18T06:40:01.260Z,275
2017-06-18T06:41:03.150Z,280
2017-06-18T06:42:05.042Z,270
2017-06-18T06:43:06.913Z,270
2017-06-18T06:44:08.722Z,270
2017-06-18T06:45:10.878Z,275
2017-06-18T06:46:12.894Z,285
2017-06-18T06:47:14.853Z,280
2017-06-18T06:48:16.747Z,285
2017-06-18T06:49:30.976Z,285
2017-06-18T06:50:32.863Z,285
2017-06-18T06:51:34.731Z,290
2017-06-18T06:52:36.599Z,295
2017-06-18T06:53:38.426Z,300
2017-06-18T06:54:40.229Z,290
2017-06-18T06:55:42.103Z,285
2017-06-18T06:56:43.990Z,270
2017-06-18T06:57:45.860Z,265
2017-06-18T06:59:00.004Z,265
2017-06-18T07:00:01.895Z,265
2017-06-18T07:01:03.814Z,270
2017-06-18T07:02:05.679Z,265
2017-06-18T07:03:07.494Z,265
2017-06-18T07:04:09.411Z,265
2017-06-18T07:05:11.287Z,265
2017-06-18T07:06:13.176Z,265
2017-06-18T07:07:15.047Z,260
2017-06-18T07:08:29.188Z,260
2017-06-18T07:09:31.129Z,260
2017-06-18T07:10:33.103Z,260
2017-06-18T07:11:34.979Z,260
2017-06-18T07:12:36.784Z,260
2017-06-18T07:13:38.586Z,260
2017-06-18T07:14:40.457Z,265
2017-06-18T07:15:42.356Z,270
2017-06-18T07:16:44.260Z,270
2017-06-18T07:17:58.402Z,265
2017-06-18T07:19:00.406Z,265
2017-06-18T07:20:02.347Z,260
2017-06-18T07:21:04.265Z,260
2017-06-18T07:22:06.154Z,265
2017-06-18T07:23:08.083Z,265
2017-06-18T07:24:10.023Z,265
2017-06-18T07:25:11.892Z,265
2017-06-18T07:26:13.824Z,265
2017-06-18T07:27:28.034Z,270
2017-06-18T07:28:29.944Z,270
2017-06-18T07:29:31.879Z,270
2017-06-18T07:30:34.409Z,275
2017-06-18T07:31:36.197Z,280
2017-06-18T07:32:38.083Z,280
2017-06-18T07:33:40.029Z,295
2017-06-18T07:34:41.943Z,295
2017-06-18T07:35:43.856Z,270
2017-06-18T07:36:58.073Z,270
2017-06-18T07:37:59.962Z,270
2017-06-18T07:39:01.926Z,270
2017-06-18T07:40:03.821Z,280
2017-06-18T07:41:05.653Z,275
2017-06-18T07:42:07.480Z,280
2017-06-18T07:43:09.366Z,290
2017-06-18T07:44:11.241Z,300
2017-06-18T07:45:13.136Z,335
2017-06-18T07:46:27.299Z,375
2017-06-18T07:47:29.187Z,385
2017-06-18T07:48:31.146Z,355
2017-06-18T07:49:33.018Z,315
2017-06-18T07:50:34.825Z,280
2017-06-18T07:51:36.636Z,250
2017-06-18T07:52:38.575Z,265
2017-06-18T07:53:40.536Z,285
2017-06-18T07:54:42.535Z,280
2017-06-18T07:55:56.733Z,275
2017-06-18T07:56:58.650Z,285
2017-06-18T07:58:00.617Z,295
2017-06-18T07:59:02.507Z,285
2017-06-18T08:00:04.339Z,285
2017-06-18T08:01:06.160Z,290
2017-06-18T08:02:08.040Z,305
2017-06-18T08:03:10.024Z,315
2017-06-18T08:04:11.910Z,340
2017-06-18T08:05:26.053Z,405
2017-06-18T08:06:27.923Z,420
2017-06-18T08:07:29.812Z,425
2017-06-18T08:08:31.815Z,420
2017-06-18T08:09:33.663Z,370
2017-06-18T08:10:35.612Z,325
2017-06-18T08:11:37.554Z,335
2017-06-18T08:12:39.490Z,350
2017-06-18T08:13:41.434Z,390
2017-06-18T08:14:55.635Z,405
2017-06-18T08:15:57.504Z,440
2017-06-18T08:16:59.445Z,465
2017-06-18T08:18:01.329Z,420
2017-06-18T08:19:03.190Z,410
2017-06-18T08:20:05.016Z,440
2017-06-18T08:21:06.908Z,450
2017-06-18T08:22:08.801Z,455
2017-06-18T08:23:10.669Z,490
2017-06-18T08:24:24.906Z,425
2017-06-18T08:25:26.840Z,385
2017-06-18T08:26:28.743Z,370
2017-06-18T08:27:30.619Z,365
2017-06-18T08:28:32.428Z,365
2017-06-18T08:29:34.254Z,365
2017-06-18T08:30:36.121Z,340
2017-06-18T08:31:37.988Z,375
2017-06-18T08:32:39.859Z,405
2017-06-18T08:33:54.026Z,370
2017-06-18T08:34:55.918Z,350
2017-06-18T08:35:57.816Z,405
2017-06-18T08:36:59.713Z,470
2017-06-18T08:38:01.541Z,465
2017-06-18T08:39:03.335Z,435
2017-06-18T08:40:05.231Z,475
2017-06-18T08:41:07.102Z,515
2017-06-18T08:42:08.968Z,515
2017-06-18T08:43:23.110Z,535
2017-06-18T08:44:24.980Z,525
2017-06-18T08:45:26.848Z,525
2017-06-18T08:46:28.715Z,515
2017-06-18T08:47:30.526Z,465
2017-06-18T08:48:32.330Z,475
2017-06-18T08:49:34.210Z,465
2017-06-18T08:50:36.082Z,450
2017-06-18T08:51:37.975Z,460
2017-06-18T08:52:52.137Z,475
2017-06-18T08:53:54.012Z,495
2017-06-18T08:54:55.900Z,480
2017-06-18T08:55:57.776Z,475
2017-06-18T08:56:59.608Z,395
2017-06-18T08:58:01.438Z,350
2017-06-18T08:59:03.310Z,345
2017-06-18T09:00:05.210Z,345
2017-06-18T09:01:07.103Z,340
2017-06-18T09:02:21.271Z,330
2017-06-18T09:03:23.139Z,325
2017-06-18T09:04:25.029Z,320
2017-06-18T09:05:26.906Z,330
2017-06-18T09:06:28.737Z,335
2017-06-18T09:07:30.567Z,340
2017-06-18T09:08:32.455Z,350
2017-06-18T09:09:34.330Z,355
2017-06-18T09:10:36.199Z,365
2017-06-18T09:11:50.347Z,375
2017-06-18T09:12:52.237Z,380
2017-06-18T09:13:54.101Z,400
2017-06-18T09:14:55.971Z,420
2017-06-18T09:15:57.813Z,425
2017-06-18T09:16:59.644Z,415
2017-06-18T09:18:01.511Z,410
2017-06-18T09:19:03.382Z,415
2017-06-18T09:20:05.249Z,415
2017-06-18T09:21:19.389Z,390
2017-06-18T09:22:21.259Z,385
2017-06-18T09:23:23.131Z,375
2017-06-18T09:24:25.003Z,370
2017-06-18T09:25:26.831Z,410
2017-06-18T09:26:28.660Z,465
2017-06-18T09:27:30.554Z,485
2017-06-18T09:28:32.430Z,565
2017-06-18T09:29:34.318Z,575
2017-06-18T09:30:48.469Z,575
2017-06-18T09:31:50.362Z,540
2017-06-18T09:32:52.241Z,510
2017-06-18T09:33:54.138Z,505
2017-06-18T09:34:55.950Z,530
2017-06-18T09:35:57.779Z,555
2017-06-18T09:36:59.647Z,565
2017-06-18T09:38:01.521Z,555
2017-06-18T09:39:03.420Z,520
2017-06-18T09:40:17.586Z,460
2017-06-18T09:41:19.474Z,475
2017-06-18T09:42:21.350Z,460
2017-06-18T09:43:23.212Z,440
2017-06-18T09:44:25.026Z,415
2017-06-18T09:45:26.857Z,375
2017-06-18T09:46:28.752Z,365
2017-06-18T09:47:30.624Z,375
2017-06-18T09:48:32.524Z,370
2017-06-18T09:49:46.689Z,370
2017-06-18T09:50:48.576Z,385
2017-06-18T09:51:50.448Z,430
2017-06-18T09:52:52.343Z,485
2017-06-18T09:53:54.171Z,555
2017-06-18T09:54:56.001Z,640
2017-06-18T09:55:57.880Z,685
2017-06-18T09:56:59.771Z,710
2017-06-18T09:58:01.671Z,705
2017-06-18T09:59:15.848Z,660
2017-06-18T10:00:17.713Z,645
2017-06-18T10:01:19.603Z,615
2017-06-18T10:02:21.473Z,605
2017-06-18T10:03:23.286Z,580
2017-06-18T10:04:25.110Z,565
2017-06-18T10:05:26.990Z,525
2017-06-18T10:06:28.880Z,480
2017-06-18T10:07:30.751Z,465
2017-06-18T10:08:44.900Z,475
2017-06-18T10:09:46.795Z,505
2017-06-18T10:10:48.687Z,555
2017-06-18T10:11:50.586Z,550
2017-06-18T10:12:52.418Z,535
2017-06-18T10:13:54.249Z,520
2017-06-18T10:14:56.312Z,515
2017-06-18T10:15:58.216Z,520
2017-06-18T10:17:00.079Z,485
2017-06-18T10:18:14.224Z,420
2017-06-18T10:19:16.125Z,370
2017-06-18T10:20:17.982Z,380
2017-06-18T10:21:19.909Z,385
2017-06-18T10:22:21.719Z,380
2017-06-18T10:23:23.551Z,395
2017-06-18T10:24:25.577Z,405
2017-06-18T10:25:27.485Z,420
2017-06-18T10:26:29.377Z,440
2017-06-18T10:27:43.526Z,475
2017-06-18T10:28:45.417Z,510
2017-06-18T10:29:47.281Z,555
2017-06-18T10:30:49.202Z,580
2017-06-18T10:31:51.038Z,635
2017-06-18T10:32:52.857Z,655
2017-06-18T10:33:54.739Z,670
2017-06-18T10:34:56.654Z,655
2017-06-18T10:35:58.648Z,605
2017-06-18T10:37:12.902Z,525
2017-06-18T10:38:14.760Z,480
2017-06-18T10:39:16.655Z,395
2017-06-18T10:40:18.530Z,355
2017-06-18T10:41:20.359Z,330
2017-06-18T10:42:22.291Z,325
2017-06-18T10:43:24.198Z,330
2017-06-18T10:44:26.095Z,340
2017-06-18T10:45:27.968Z,345
2017-06-18T10:46:42.153Z,380
2017-06-18T10:47:44.122Z,405
2017-06-18T10:48:46.052Z,435
2017-06-18T10:49:47.944Z,475
2017-06-18T10:50:49.769Z,520
2017-06-18T10:51:51.584Z,580
2017-06-18T10:55:21.736Z,620
2017-06-18T10:56:23.612Z,570
2017-06-18T10:57:25.446Z,520
2017-06-18T10:58:27.268Z,475
2017-06-18T10:59:29.149Z,450
2017-06-18T11:00:31.052Z,400
2017-06-18T11:01:32.967Z,385
2017-06-18T11:02:34.756Z,380
2017-06-18T11:03:48.910Z,390
2017-06-18T11:04:50.811Z,425
2017-06-18T11:05:52.754Z,450
2017-06-18T11:06:54.680Z,500
2017-06-18T11:07:56.467Z,555
2017-06-18T11:08:58.302Z,595
2017-06-18T11:10:00.192Z,595
2017-06-18T11:11:02.086Z,610
2017-06-18T11:12:03.958Z,595
2017-06-18T11:13:18.128Z,550
2017-06-18T11:14:20.071Z,525
2017-06-18T11:15:21.950Z,510
2017-06-18T11:16:23.845Z,485
2017-06-18T11:17:25.699Z,460
2017-06-18T11:18:27.563Z,425
2017-06-18T11:19:29.458Z,415
2017-06-18T11:20:31.391Z,400
2017-06-18T11:21:33.322Z,390
2017-06-18T11:22:47.473Z,380
2017-06-18T11:23:49.379Z,375
2017-06-18T11:24:51.280Z,390
2017-06-18T11:25:53.227Z,395
2017-06-18T11:26:55.188Z,410
2017-06-18T11:27:57.040Z,430
2017-06-18T11:28:58.970Z,445
2017-06-18T11:30:00.964Z,470
2017-06-18T11:31:02.856Z,470
2017-06-18T11:32:17.026Z,480
2017-06-18T11:33:18.908Z,480
2017-06-18T11:34:20.780Z,470
2017-06-18T11:35:22.664Z,440
2017-06-18T11:36:24.577Z,400
2017-06-18T11:37:26.385Z,380
2017-06-18T11:38:28.332Z,370
2017-06-18T11:39:30.176Z,365
2017-06-18T11:40:32.050Z,370
2017-06-18T11:41:46.212Z,365
2017-06-18T11:42:48.076Z,360
2017-06-18T11:43:49.956Z,350
2017-06-18T11:44:51.837Z,335
2017-06-18T11:45:53.656Z,335
2017-06-18T11:46:55.499Z,320
2017-06-18T11:47:57.392Z,340
2017-06-18T11:48:59.281Z,365
2017-06-18T11:50:01.154Z,380
2017-06-18T11:51:15.292Z,420
2017-06-18T11:52:17.160Z,480
2017-06-18T11:53:19.037Z,560
2017-06-18T11:54:20.932Z,650
2017-06-18T11:55:22.759Z,655
2017-06-18T11:56:24.592Z,620
2017-06-18T11:57:26.463Z,595
2017-06-18T11:58:28.334Z,570
2017-06-18T11:59:30.211Z,545
2017-06-18T12:00:44.355Z,505
2017-06-18T12:01:46.260Z,455
2017-06-18T12:02:48.139Z,405
2017-06-18T12:03:50.029Z,385
2017-06-18T12:04:51.854Z,360
2017-06-18T12:05:53.663Z,365
2017-06-18T12:06:55.534Z,375
2017-06-18T12:07:57.423Z,395
2017-06-18T12:08:59.292Z,415
2017-06-18T12:10:13.482Z,450
2017-06-18T12:11:15.349Z,485
2017-06-18T12:12:17.223Z,490
2017-06-18T12:13:19.112Z,475
2017-06-18T12:14:20.925Z,455
2017-06-18T12:15:22.732Z,435
2017-06-18T12:16:24.600Z,425
2017-06-18T12:17:26.475Z,415
2017-06-18T12:18:28.348Z,390
2017-06-18T12:19:42.487Z,340
2017-06-18T12:20:44.353Z,300
2017-06-18T12:21:46.250Z,280
2017-06-18T12:22:48.146Z,275
2017-06-18T12:23:49.955Z,290
2017-06-18T12:24:51.777Z,295
2017-06-18T12:25:53.654Z,305
2017-06-18T12:26:55.545Z,315
2017-06-18T12:27:57.435Z,325
2017-06-18T12:29:11.577Z,335
2017-06-18T12:30:13.451Z,350
2017-06-18T12:31:15.337Z,355
2017-06-18T12:32:17.206Z,360
2017-06-18T12:33:19.013Z,370
2017-06-18T12:34:20.822Z,375
2017-06-18T12:35:22.688Z,370
2017-06-18T12:36:24.560Z,355
2017-06-18T12:37:26.433Z,355
2017-06-18T12:38:40.593Z,365
2017-06-18T12:39:42.465Z,370
2017-06-18T12:40:44.331Z,365
2017-06-18T12:41:46.200Z,355
2017-06-18T12:42:48.013Z,380
2017-06-18T12:43:49.842Z,380
2017-06-18T12:44:51.710Z,380
2017-06-18T12:45:53.583Z,370
2017-06-18T12:46:55.451Z,355
2017-06-18T12:48:09.602Z,360
2017-06-18T12:49:11.466Z,365
2017-06-18T12:50:13.342Z,380
2017-06-18T12:51:15.232Z,400
2017-06-18T12:52:17.041Z,420
2017-06-18T12:53:18.880Z,440
2017-06-18T12:54:20.746Z,445
2017-06-18T12:55:22.621Z,450
2017-06-18T12:56:24.489Z,435
2017-06-18T12:57:38.656Z,415
2017-06-18T12:58:40.519Z,420
2017-06-18T12:59:42.393Z,425
2017-06-18T13:00:44.283Z,420
2017-06-18T13:01:46.093Z,440
2017-06-18T13:02:47.907Z,475
2017-06-18T13:03:49.792Z,500
2017-06-18T13:04:51.664Z,515
2017-06-18T13:05:53.539Z,530
2017-06-18T13:07:07.700Z,505
2017-06-18T13:08:09.567Z,490
2017-06-18T13:09:11.445Z,470
2017-06-18T13:10:13.330Z,445
2017-06-18T13:11:15.143Z,440
2017-06-18T13:12:16.949Z,430
2017-06-18T13:13:18.825Z,435
2017-06-18T13:14:20.691Z,450
2017-06-18T13:15:22.570Z,455
2017-06-18T13:16:36.736Z,445
2017-06-18T13:17:38.612Z,445
2017-06-18T13:18:40.495Z,450
2017-06-18T13:19:42.375Z,455
2017-06-18T13:20:44.203Z,460
2017-06-18T13:21:46.014Z,445
2017-06-18T13:22:47.905Z,415
2017-06-18T13:23:49.783Z,385
2017-06-18T13:24:51.680Z,375
2017-06-18T13:26:05.841Z,380
2017-06-18T13:27:07.714Z,385
2017-06-18T13:28:09.607Z,405
2017-06-18T13:29:11.499Z,460
2017-06-18T13:30:13.327Z,485
2017-06-18T13:31:15.142Z,505
2017-06-18T13:32:17.013Z,510
2017-06-18T13:33:18.890Z,505
2017-06-18T13:34:20.780Z,490
2017-06-18T13:35:34.977Z,490
2017-06-18T13:36:36.845Z,515
2017-06-18T13:37:38.739Z,500
2017-06-18T13:38:40.636Z,490
2017-06-18T13:39:42.469Z,480
2017-06-18T13:40:44.274Z,470
2017-06-18T13:41:46.151Z,450
2017-06-18T13:42:48.018Z,440
2017-06-18T13:43:49.889Z,440
2017-06-18T13:45:04.333Z,430
2017-06-18T13:46:06.198Z,445
2017-06-18T13:47:08.070Z,455
2017-06-18T13:48:09.961Z,440
2017-06-18T13:49:11.776Z,415
2017-06-18T13:50:13.589Z,400
2017-06-18T13:51:15.463Z,400
2017-06-18T13:52:17.334Z,405
2017-06-18T13:53:19.234Z,395
2017-06-18T13:54:33.371Z,400
2017-06-18T13:55:35.264Z,400
2017-06-18T13:56:37.149Z,400
2017-06-18T13:57:39.024Z,410
2017-06-18T13:58:40.856Z,415
2017-06-18T13:59:42.684Z,420
2017-06-18T14:00:44.555Z,440
2017-06-18T14:01:46.434Z,455
2017-06-18T14:02:48.326Z,475
2017-06-18T14:04:02.471Z,480
2017-06-18T14:05:04.357Z,475
2017-06-18T14:06:06.256Z,470
2017-06-18T14:07:08.151Z,465
2017-06-18T14:08:09.981Z,460
2017-06-18T14:09:11.816Z,450
2017-06-18T14:10:13.710Z,460
2017-06-18T14:11:15.581Z,440
2017-06-18T14:12:17.455Z,440
2017-06-18T14:13:31.624Z,450
2017-06-18T14:14:33.513Z,470
2017-06-18T14:15:35.385Z,485
2017-06-18T14:16:37.276Z,495
2017-06-18T14:17:39.084Z,500
2017-06-18T14:18:40.897Z,500
2017-06-18T14:19:42.770Z,490
2017-06-18T14:20:44.663Z,480
2017-06-18T14:21:46.537Z,470
2017-06-18T14:23:00.681Z,455
2017-06-18T14:24:02.550Z,420
2017-06-18T14:25:04.422Z,405
2017-06-18T14:26:06.317Z,395
2017-06-18T14:27:08.143Z,380
2017-06-18T14:28:09.961Z,370
2017-06-18T14:29:11.849Z,365
2017-06-18T14:30:13.724Z,370
2017-06-18T14:31:15.600Z,370
2017-06-18T14:32:29.740Z,380
2017-06-18T14:33:31.614Z,390
2017-06-18T14:34:33.508Z,400
2017-06-18T14:35:35.399Z,415
2017-06-18T14:36:37.206Z,435
2017-06-18T14:37:39.021Z,455
2017-06-18T14:38:40.890Z,465
2017-06-18T14:39:42.783Z,490
2017-06-18T14:40:44.661Z,510
2017-06-18T14:41:58.808Z,525
2017-06-18T14:43:00.681Z,490
2017-06-18T14:44:02.566Z,445
2017-06-18T14:45:04.439Z,430
2017-06-18T14:46:06.253Z,420